Latest Weather Observations for Winton

IDQ60801

Issued at 8:35 am EST Tuesday 25 November 2014 (issued every 30 minutes, with the page automatically refreshed every 10 minutes)

About weather observations | Map of weather stations | Latest weather observations for QLD | Other Formats
Station Details ID: 037039 Name: WINTON AIRPORT Lat: -22.36 Lon: 143.08 Height: 192.2 m
Data from the previous 72 hours. | See also: Recent months at Winton
Date/Time
EST
Temp
°C
App
Temp
°C
Dew
Point
Rel
Hum
%
Delta-T
°C
Wind Press
QNH
hPa
Press
MSL
hPa
Rain
since 9 am
mm
Dir
 
Spd
km/h
Gust
km/h
Spd
kts
Gust
kts
25/08:30am 32.0 30.7 15.9 38 10.1 NNE 17 24 9 13 1012.0 1010.6 0.0
25/08:00am 31.0 29.3 16.2 41 9.3 NE 20 30 11 16 1011.9 1010.5 0.0
25/07:30am 30.5 27.9 15.8 41 9.2 NE 24 28 13 15 1011.6 1010.2 0.0
25/07:00am 30.0 27.5 16.1 43 8.7 NE 24 32 13 17 1011.1 1009.7 0.0
25/06:30am 28.6 27.7 13.7 40 9.0 ENE 11 15 6 8 1011.1 1009.7 0.0
25/06:00am 27.4 26.4 13.4 42 8.3 E 11 15 6 8 1010.9 1009.5 0.0
25/05:30am 28.0 26.1 14.3 43 8.3 ESE 17 22 9 12 1010.2 1008.9 0.0
25/05:00am 27.9 26.8 14.2 43 8.3 ESE 13 19 7 10 1010.0 1008.7 0.0
25/04:30am 28.5 26.5 14.0 41 8.7 E 17 22 9 12 1009.6 1008.3 0.0
25/04:00am 28.7 26.5 13.4 39 9.2 E 17 19 9 10 1009.6 1008.3 0.0
25/03:30am 28.7 26.0 11.7 35 9.9 E 17 20 9 11 1009.6 1008.3 0.0
25/03:00am 28.8 26.1 7.4 26 11.6 ESE 11 15 6 8 1009.7 1008.4 0.0
25/02:30am 29.3 26.2 5.4 22 12.6 S 11 15 6 8 1009.4 1008.1 0.0
25/02:00am 30.9 27.6 8.0 24 12.7 ESE 15 19 8 10 1009.1 1007.8 0.0
25/01:30am 29.7 25.7 5.1 21 12.9 SE 15 20 8 11 1009.1 1007.8 0.0
25/01:00am 29.6 28.0 10.2 30 11.1 SSW 9 13 5 7 1009.4 1008.1 0.0
25/12:30am 30.9 28.1 5.3 20 13.6 NNW 9 13 5 7 1009.2 1007.9 0.0
25/12:00am 30.5 28.2 5.7 21 13.2 WNW 7 11 4 6 1009.4 1008.1 0.0
 
Date/Time
EST
Temp
°C
App
Temp
°C
Dew
Point
Rel
Hum
%
Delta-T
°C
Wind Press
QNH
hPa
Press
MSL
hPa
Rain
since 9 am
mm
Dir
 
Spd
km/h
Gust
km/h
Spd
kts
Gust
kts
24/11:30pm 30.2 27.3 4.8 20 13.3 NE 9 11 5 6 1009.3 1008.0 0.0
24/11:00pm 31.7 28.2 5.3 19 14.1 ENE 13 17 7 9 1009.4 1008.1 0.0
24/10:30pm 32.5 29.1 5.9 19 14.4 ENE 13 19 7 10 1009.5 1008.2 0.0
24/10:00pm 33.6 29.6 6.8 19 14.8 ENE 17 24 9 13 1009.4 1008.1 0.0
24/09:30pm 34.3 30.1 7.4 19 15.0 ENE 19 26 10 14 1009.3 1008.0 0.0
24/09:00pm 34.7 30.8 6.9 18 15.4 E 17 20 9 11 1009.1 1007.8 0.0
24/08:30pm 34.9 31.8 7.1 18 15.5 E 13 17 7 9 1009.0 1007.7 0.0
24/08:00pm 35.8 32.6 7.0 17 16.1 E 13 17 7 9 1008.6 1007.3 0.0
24/07:30pm 36.6 33.4 6.7 16 16.7 E 13 17 7 9 1008.2 1006.9 0.0
24/07:00pm 37.6 33.8 7.5 16 17.1 E 17 24 9 13 1007.9 1006.6 0.0
24/06:30pm 38.4 34.9 7.2 15 17.7 E 15 20 8 11 1007.4 1006.0 0.0
24/06:00pm 38.8 37.1 7.5 15 17.9 E 6 17 3 9 1007.0 1005.6 0.0
24/05:30pm 39.3 36.5 6.9 14 18.4 ESE 11 20 6 11 1006.8 1005.4 0.0
24/05:00pm 39.9 38.8 8.4 15 18.3 WNW 4 9 2 5 1006.7 1005.3 0.0
24/04:30pm 40.4 37.0 7.8 14 18.8 ENE 15 20 8 11 1006.7 1005.3 0.0
24/04:00pm 40.2 38.6 8.6 15 18.5 N 7 15 4 8 1006.7 1005.3 0.0
24/03:30pm 40.8 38.5 9.1 15 18.7 NE 11 26 6 14 1006.9 1005.5 0.0
24/03:00pm 39.4 36.3 8.9 16 17.9 ENE 15 30 8 16 1007.5 1006.1 0.0
24/02:30pm 39.1 37.7 9.6 17 17.4 N 7 17 4 9 1008.1 1006.8 0.0
24/02:00pm 39.0 37.1 10.4 18 17.1 NNE 11 20 6 11 1008.8 1007.5 0.0
24/01:30pm 39.2 37.5 11.3 19 16.9 NNE 11 19 6 10 1009.4 1008.1 0.0
24/01:00pm 38.4 36.9 10.7 19 16.6 NE 9 19 5 10 1010.0 1008.7 0.0
24/12:30pm 37.9 36.2 11.1 20 16.1 N 11 22 6 12 1010.6 1009.2 0.0
24/12:00pm 37.5 35.3 12.2 22 15.4 NNE 15 30 8 16 1011.2 1009.8 0.0
24/11:30am 38.1 35.9 12.0 21 15.9 N 15 26 8 14 1011.6 1010.2 0.0
24/11:00am 37.5 34.8 12.8 22 15.2 NNE 19 26 10 14 1011.9 1010.5 0.0
24/10:30am 36.7 34.0 13.5 25 14.3 N 20 32 11 17 1012.2 1010.8 0.0
24/10:00am 35.5 32.5 13.6 26 13.5 N 22 39 12 21 1012.3 1010.9 0.0
24/09:30am 35.1 31.2 13.3 27 13.3 N 26 41 14 22 1012.4 1011.1 0.0
24/09:00am 33.9 29.3 13.4 29 12.5 NNE 30 37 16 20 1012.5 1011.2 0.0
24/08:30am 32.1 27.8 13.3 31 11.4 NNE 28 35 15 19 1012.6 1011.3 0.0
24/08:00am 31.0 27.2 13.7 34 10.5 NNE 26 35 14 19 1012.5 1011.2 0.0
24/07:30am 29.6 26.4 14.2 39 9.4 NNE 24 33 13 18 1012.4 1011.1 0.0
24/07:00am 28.1 25.6 14.0 42 8.5 NNE 20 28 11 15 1012.2 1010.8 0.0
24/06:30am 26.6 24.8 13.3 43 7.9 NE 15 19 8 10 1011.8 1010.4 0.0
24/06:00am 25.7 23.6 12.5 44 7.7 NE 15 20 8 11 1011.3 1009.9 0.0
24/05:30am 25.4 23.5 11.9 43 7.8 NNE 13 19 7 10 1010.9 1009.5 0.0
24/05:00am 25.7 23.9 10.7 39 8.5 NE 11 15 6 8 1010.6 1009.2 0.0
24/04:30am 26.4 24.1 10.5 37 9.0 NNE 13 17 7 9 1009.9 1008.6 0.0
24/04:00am 27.6 23.8 9.9 33 10.0 NNE 20 28 11 15 1009.6 1008.3 0.0
24/03:30am 27.9 23.9 9.2 31 10.4 NNE 20 28 11 15 1009.4 1008.1 0.0
24/03:00am 28.4 24.1 9.2 30 10.7 NNE 22 30 12 16 1009.5 1008.2 0.0
24/02:30am 28.2 24.9 8.0 28 11.0 NNE 15 20 8 11 1009.6 1008.3 0.0
24/02:00am 29.0 25.5 8.7 28 11.3 NNE 17 24 9 13 1009.5 1008.2 0.0
24/01:30am 29.6 26.3 9.7 29 11.3 NNE 17 20 9 11 1009.7 1008.4 0.0
24/01:00am 27.7 25.9 9.5 32 10.2 N 9 9 5 5 1010.0 1008.7 0.0
24/12:30am 29.0 28.0 10.2 31 10.7 NNE 6 6 3 3 1010.4 1009.1 0.0
24/12:00am 29.9 29.1 10.9 31 11.0 NE 6 7 3 4 1010.7 1009.3 0.0
 
Date/Time
EST
Temp
°C
App
Temp
°C
Dew
Point
Rel
Hum
%
Delta-T
°C
Wind Press
QNH
hPa
Press
MSL
hPa
Rain
since 9 am
mm
Dir
 
Spd
km/h
Gust
km/h
Spd
kts
Gust
kts
23/11:30pm 29.9 29.0 10.5 30 11.1 ENE 6 7 3 4 1011.1 1009.7 0.0
23/11:00pm 31.4 29.9 10.7 28 12.0 ENE 9 11 5 6 1011.2 1009.8 0.0
23/10:30pm 32.7 31.4 11.3 27 12.6 ENE 9 15 5 8 1011.2 1009.8 0.0
23/10:00pm 32.2 32.3 13.9 33 11.2 SE 6 11 3 6 1010.9 1009.5 0.0
23/09:30pm 30.5 29.8 11.5 31 11.1 S 6 9 3 5 1010.9 1009.5 0.0
23/09:00pm 32.0 31.3 13.2 31 11.4 E 9 13 5 7 1010.4 1009.1 0.0
23/08:30pm 32.5 33.3 13.7 32 11.5 WSW 2 6 1 3 1010.2 1008.9 0.0
23/08:00pm 32.7 32.5 12.9 30 12.0 WSW 6 7 3 4 1010.0 1008.7 0.0
23/07:30pm 34.0 33.6 14.0 30 12.3 WNW 9 13 5 7 1009.5 1008.2 0.0
23/07:00pm 34.8 33.5 13.6 28 13.0 NNW 13 19 7 10 1009.1 1007.8 0.0
23/06:30pm 35.4 32.9 14.1 28 13.2 NNW 20 28 11 15 1008.7 1007.4 0.0
23/06:00pm 39.1 37.1 12.8 21 16.2 NE 15 20 8 11 1008.5 1007.2 0.0
23/05:30pm 39.3 36.2 12.2 20 16.6 ENE 20 26 11 14 1008.0 1006.7 0.0
23/05:00pm 39.6 36.3 11.7 19 17.0 ENE 20 30 11 16 1008.0 1006.7 0.0
23/04:30pm 38.9 36.1 12.6 21 16.2 NE 19 24 10 13 1007.9 1006.6 0.0
23/04:00pm 38.8 35.0 12.5 21 16.2 NNE 24 32 13 17 1008.1 1006.8 0.0
23/03:30pm 39.5 35.9 9.9 17 17.5 ESE 19 28 10 15 1008.3 1007.0 0.0
23/03:00pm 40.5 38.5 11.6 18 17.6 ENE 13 26 7 14 1008.5 1007.2 0.0
23/02:30pm 39.8 37.0 12.6 20 16.8 NE 19 35 10 19 1008.8 1007.5 0.0
23/02:00pm 40.3 38.8 13.0 20 17.0 ENE 13 32 7 17 1009.4 1008.1 0.0
23/01:30pm 40.8 38.0 12.6 19 17.4 ESE 19 28 10 15 1009.7 1008.4 0.0
23/01:00pm 41.3 40.0 13.8 20 17.3 E 13 26 7 14 1010.6 1009.2 0.0
23/12:30pm 40.9 40.2 14.3 21 16.8 NE 11 19 6 10 1011.0 1009.6 0.0
23/12:00pm 41.0 38.9 15.1 22 16.6 ENE 20 33 11 18 1011.4 1010.0 0.0
23/11:30am 39.3 36.9 14.3 22 15.7 E 20 28 11 15 1011.9 1010.5 0.0
23/11:00am 38.5 36.5 15.0 25 14.9 E 19 28 10 15 1012.3 1010.9 0.0
23/10:30am 36.9 35.1 15.9 28 13.4 ENE 20 30 11 16 1012.7 1011.4 0.0
23/10:00am 36.8 34.4 17.4 32 12.6 ENE 26 35 14 19 1013.0 1011.7 0.0
23/09:30am 33.8 31.3 17.1 37 10.7 ENE 26 32 14 17 1013.0 1011.7 0.0
23/09:00am 32.3 29.7 17.7 41 9.4 E 28 35 15 19 1013.2 1011.9 0.0
23/08:30am 32.3 29.8 16.2 38 10.2 E 24 33 13 18 1013.2 1011.9 0.0
23/08:00am 30.1 29.4 16.5 44 8.6 E 15 19 8 10 1013.0 1011.7 0.0
23/07:30am 28.4 28.8 17.3 51 7.0 E 11 15 6 8 1013.0 1011.7 0.0
23/07:00am 27.4 28.4 17.8 55 6.1 SE 9 11 5 6 1012.5 1011.2 0.0
23/06:30am 27.1 29.1 17.8 56 5.9 E 4 9 2 5 1012.0 1010.6 0.0
23/06:00am 26.5 29.1 17.6 58 5.6 CALM 0 0 0 0 1011.6 1010.2 0.0
23/05:30am 26.5 29.0 17.3 57 5.8 CALM 0 2 0 1 1011.3 1009.9 0.0
23/05:00am 26.8 28.2 17.3 56 6.0 S 6 6 3 3 1011.0 1009.6 0.0
23/04:30am 26.9 28.3 17.7 57 5.8 SSW 7 9 4 5 1010.8 1009.4 0.0
23/04:00am 26.9 28.5 17.9 57 5.7 S 6 7 3 4 1010.9 1009.5 0.0
23/03:30am 27.4 27.8 18.1 57 5.9 S 13 19 7 10 1011.0 1009.6 0.0
23/03:00am 27.2 27.6 18.2 58 5.8 S 13 17 7 9 1011.2 1009.8 0.0
23/02:30am 27.4 26.1 18.1 57 5.9 S 22 32 12 17 1011.3 1009.9 0.0
23/02:00am 27.6 25.5 18.0 55 6.1 S 26 37 14 20 1011.7 1010.3 0.0
23/01:30am 27.6 25.5 18.0 55 6.1 S 26 39 14 21 1012.1 1010.7 0.0
23/01:00am 28.2 24.2 17.7 53 6.7 S 35 48 19 26 1012.0 1010.6 0.0
23/12:30am 29.6 26.2 17.8 49 7.6 S 32 43 17 23 1012.2 1010.8 0.0
23/12:00am 30.2 27.0 17.3 46 8.2 SSW 30 37 16 20 1012.2 1010.8 0.0
 
Date/Time
EST
Temp
°C
App
Temp
°C
Dew
Point
Rel
Hum
%
Delta-T
°C
Wind Press
QNH
hPa
Press
MSL
hPa
Rain
since 9 am
mm
Dir
 
Spd
km/h
Gust
km/h
Spd
kts
Gust
kts
22/11:30pm 32.4 28.9 15.4 36 10.6 WSW 28 35 15 19 1011.6 1010.2 0.0
22/11:00pm 33.8 31.0 15.3 33 11.6 WSW 24 30 13 16 1011.4 1010.0 0.0
22/10:30pm 34.2 32.1 14.7 31 12.1 NW 19 24 10 13 1010.8 1009.4 0.0
22/10:00pm 34.3 31.8 15.2 31 12.0 NW 22 26 12 14 1010.6 1009.2 0.0
22/09:30pm 34.8 32.3 14.1 28 12.8 NNW 20 28 11 15 1010.3 1009.0 0.0
22/09:00pm 33.8 33.9 12.7 27 12.8 NNW 4 6 2 3 1009.5 1008.2 0.0
22/08:30pm 34.6 36.4 15.5 32 12.0 CALM 0 0 0 0 1009.2 1007.9 0.0
22/08:00pm 34.9 36.3 15.3 31 12.4 ESE 2 4 1 2 1008.8 1007.5 0.0
22/07:30pm 36.4 36.6 11.9 23 14.8 W 2 4 1 2 1008.4 1007.1 0.0
22/07:00pm 37.0 36.4 11.8 22 15.2 WNW 6 7 3 4 1008.1 1006.8 0.0
22/06:30pm 38.1 38.3 12.0 21 15.9 NW 2 2 1 1 1007.7 1006.4 0.0
22/06:00pm 38.6 37.6 12.4 21 16.1 NW 9 11 5 6 1007.4 1006.0 0.0
22/05:30pm 38.7 37.6 13.2 22 15.8 NNW 11 15 6 8 1007.1 1005.7 0.0
22/05:00pm 38.6 36.0 13.1 22 15.8 NW 19 30 10 16 1007.0 1005.6 0.0
22/04:30pm 40.6 37.8 12.5 19 17.3 NNW 19 26 10 14 1007.2 1005.8 0.0
22/04:00pm 40.2 38.8 12.1 19 17.3 NNE 11 19 6 10 1007.4 1006.0 0.0
22/03:30pm 41.2 40.3 11.3 17 18.2 ENE 7 15 4 8 1007.7 1006.4 0.0
22/03:00pm 41.2 40.8 13.0 19 17.6 WSW 7 13 4 7 1008.1 1006.8 0.0
22/02:30pm 41.8 40.4 13.4 18 17.8 NW 13 20 7 11 1008.5 1007.2 0.0
22/02:00pm 40.8 39.1 12.6 19 17.5 NNW 13 24 7 13 1009.1 1007.8 0.0
22/01:30pm 40.2 38.3 12.9 20 16.9 N 15 26 8 14 1009.7 1008.4 0.0
22/01:00pm 40.5 39.3 13.9 21 16.7 N 13 20 7 11 1010.2 1008.9 0.0
22/12:30pm 39.3 38.5 15.0 24 15.5 NNW 13 28 7 15 1010.7 1009.3 0.0
22/12:00pm 38.5 37.8 14.3 23 15.2 NNW 11 28 6 15 1011.2 1009.8 0.0
22/11:30am 38.3 36.8 14.2 24 15.1 NNW 15 24 8 13 1011.6 1010.2 0.0
22/11:00am 36.6 34.9 14.6 27 13.8 NW 17 22 9 12 1011.8 1010.4 0.0
22/10:30am 35.9 35.5 16.1 30 12.6 NNW 13 20 7 11 1012.2 1010.8 0.0
22/10:00am 35.4 35.0 17.1 33 11.8 WNW 15 22 8 12 1012.4 1011.1 0.0
22/09:30am 33.1 33.2 16.5 37 10.6 NNW 11 17 6 9 1012.5 1011.2 0.0
22/09:00am 32.1 32.2 16.4 39 10.0 NNW 11 15 6 8 1012.6 1011.3 0.0

Other Formats:

Comma delimited format used in spreadsheet applications
http://www.bom.gov.au/fwo/IDQ60801/IDQ60801.94342.axf

JavaScript Object Notation format (JSON) in row-major order
http://www.bom.gov.au/fwo/IDQ60801/IDQ60801.94342.json